sensor_id;sensor_type;location;lat;lon;timestamp;pressure;altitude;pressure_sealevel;temperature;humidity
79729;BME280;69218;52.132;5.418;2023-05-10T00:02:10;100966.38;;;12.97;84.15
79729;BME280;69218;52.132;5.418;2023-05-10T00:04:40;100961.94;;;12.98;85.65
79729;BME280;69218;52.132;5.418;2023-05-10T00:07:10;100957.91;;;12.93;84.75
79729;BME280;69218;52.132;5.418;2023-05-10T00:09:36;100957.91;;;12.93;85.04
79729;BME280;69218;52.132;5.418;2023-05-10T00:12:03;100955.13;;;12.95;85.57
79729;BME280;69218;52.132;5.418;2023-05-10T00:14:30;100956.22;;;12.92;85.53
79729;BME280;69218;52.132;5.418;2023-05-10T00:16:56;100960.66;;;12.92;85.97
79729;BME280;69218;52.132;5.418;2023-05-10T00:19:23;100958.03;;;12.92;85.70
79729;BME280;69218;52.132;5.418;2023-05-10T00:21:49;100956.22;;;12.92;85.29
79729;BME280;69218;52.132;5.418;2023-05-10T00:24:16;100952.50;;;12.95;85.84
79729;BME280;69218;52.132;5.418;2023-05-10T00:26:42;100947.38;;;12.93;85.24
79729;BME280;69218;52.132;5.418;2023-05-10T00:29:09;100950.84;;;12.94;85.44
79729;BME280;69218;52.132;5.418;2023-05-10T00:31:36;100949.03;;;12.95;85.28
79729;BME280;69218;52.132;5.418;2023-05-10T00:34:02;100950.84;;;12.94;86.66
79729;BME280;69218;52.132;5.418;2023-05-10T00:36:30;100955.25;;;12.93;85.94
79729;BME280;69218;52.132;5.418;2023-05-10T00:38:57;100948.34;;;12.92;86.30
79729;BME280;69218;52.132;5.418;2023-05-10T00:41:24;100953.59;;;12.92;86.23
79729;BME280;69218;52.132;5.418;2023-05-10T00:43:50;100955.13;;;12.95;87.48
79729;BME280;69218;52.132;5.418;2023-05-10T00:46:17;100957.75;;;12.95;86.39
79729;BME280;69218;52.132;5.418;2023-05-10T00:48:44;100945.72;;;12.92;86.66
79729;BME280;69218;52.132;5.418;2023-05-10T00:51:11;100955.13;;;12.95;87.98
79729;BME280;69218;52.132;5.418;2023-05-10T00:53:38;100945.44;;;12.96;88.05
79729;BME280;69218;52.132;5.418;2023-05-10T00:56:05;100951.66;;;12.95;88.02
79729;BME280;69218;52.132;5.418;2023-05-10T00:58:31;100961.34;;;12.94;87.62
79729;BME280;69218;52.132;5.418;2023-05-10T01:00:59;100959.00;;;12.91;87.73
79729;BME280;69218;52.132;5.418;2023-05-10T01:03:27;100957.34;;;12.90;86.94
79729;BME280;69218;52.132;5.418;2023-05-10T01:05:54;100953.47;;;12.94;88.46
79729;BME280;69218;52.132;5.418;2023-05-10T01:08:21;100958.88;;;12.92;87.17
79729;BME280;69218;52.132;5.418;2023-05-10T01:10:48;100954.44;;;12.93;87.05
79729;BME280;69218;52.132;5.418;2023-05-10T01:13:26;100950.69;;;12.96;87.51
79729;BME280;69218;52.132;5.418;2023-05-10T01:15:56;100955.13;;;12.95;87.49
79729;BME280;69218;52.132;5.418;2023-05-10T01:18:24;100957.63;;;12.97;87.85
79729;BME280;69218;52.132;5.418;2023-05-10T01:21:04;100961.22;;;12.96;87.87
79729;BME280;69218;52.132;5.418;2023-05-10T01:24:02;100963.16;;;12.93;87.41
79729;BME280;69218;52.132;5.418;2023-05-10T01:26:55;100961.22;;;12.96;88.00
79729;BME280;69218;52.132;5.418;2023-05-10T01:29:52;100961.34;;;12.94;87.96
79729;BME280;69218;52.132;5.418;2023-05-10T01:32:44;100951.94;;;12.91;88.67
79729;BME280;69218;52.132;5.418;2023-05-10T01:35:22;100959.00;;;12.91;88.77
79729;BME280;69218;52.132;5.418;2023-05-10T01:38:18;100952.09;;;12.90;87.48
79729;BME280;69218;52.132;5.418;2023-05-10T01:43:55;100956.47;;;12.89;87.97
79729;BME280;69218;52.132;5.418;2023-05-10T01:46:42;100960.53;;;12.93;87.82
79729;BME280;69218;52.132;5.418;2023-05-10T01:49:14;100964.00;;;12.94;88.62
79729;BME280;69218;52.132;5.418;2023-05-10T01:51:47;100958.88;;;12.92;88.33
79729;BME280;69218;52.132;5.418;2023-05-10T01:54:17;100960.81;;;12.90;88.53
79729;BME280;69218;52.132;5.418;2023-05-10T01:56:50;100954.81;;;12.88;88.93
79729;BME280;69218;52.132;5.418;2023-05-10T01:59:19;100956.63;;;12.88;88.73
79729;BME280;69218;52.132;5.418;2023-05-10T02:01:47;100957.47;;;12.88;87.83
79729;BME280;69218;52.132;5.418;2023-05-10T02:04:17;100955.78;;;12.87;88.05
79729;BME280;69218;52.132;5.418;2023-05-10T02:06:45;100961.19;;;12.86;87.95
79729;BME280;69218;52.132;5.418;2023-05-10T02:09:14;100963.00;;;12.85;87.56
79729;BME280;69218;52.132;5.418;2023-05-10T02:11:43;100961.34;;;12.84;87.64
79729;BME280;69218;52.132;5.418;2023-05-10T02:14:11;100964.66;;;12.86;87.93
79729;BME280;69218;52.132;5.418;2023-05-10T02:16:38;100964.66;;;12.86;89.00
79729;BME280;69218;52.132;5.418;2023-05-10T02:19:06;100966.59;;;12.84;89.24
79729;BME280;69218;52.132;5.418;2023-05-10T02:21:35;100964.94;;;12.83;89.10
79729;BME280;69218;52.132;5.418;2023-05-10T02:24:03;100968.41;;;12.84;89.11
79729;BME280;69218;52.132;5.418;2023-05-10T02:26:32;100975.31;;;12.85;89.04
79729;BME280;69218;52.132;5.418;2023-05-10T02:29:01;100973.66;;;12.84;88.53
79729;BME280;69218;52.132;5.418;2023-05-10T02:31:33;100977.97;;;12.85;89.63
79729;BME280;69218;52.132;5.418;2023-05-10T02:34:01;100982.38;;;12.84;88.87
79729;BME280;69218;52.132;5.418;2023-05-10T02:36:30;100975.47;;;12.83;89.08
79729;BME280;69218;52.132;5.418;2023-05-10T02:38:59;100976.69;;;12.79;89.13
79729;BME280;69218;52.132;5.418;2023-05-10T02:41:29;100981.13;;;12.79;89.19
79729;BME280;69218;52.132;5.418;2023-05-10T02:43:59;100990.53;;;12.81;88.55
79729;BME280;69218;52.132;5.418;2023-05-10T02:46:27;100990.41;;;12.83;88.82
79729;BME280;69218;52.132;5.418;2023-05-10T02:48:54;100985.16;;;12.83;89.37
79729;BME280;69218;52.132;5.418;2023-05-10T02:51:23;100998.19;;;12.84;88.75
79729;BME280;69218;52.132;5.418;2023-05-10T02:53:53;100986.00;;;12.83;88.92
79729;BME280;69218;52.132;5.418;2023-05-10T02:56:23;100986.69;;;12.85;88.65
79729;BME280;69218;52.132;5.418;2023-05-10T02:58:52;100989.56;;;12.82;88.15
79729;BME280;69218;52.132;5.418;2023-05-10T03:01:18;100986.94;;;12.82;88.87
79729;BME280;69218;52.132;5.418;2023-05-10T03:03:45;100993.56;;;12.77;88.59
79729;BME280;69218;52.132;5.418;2023-05-10T03:06:12;100998.00;;;12.76;88.82
79729;BME280;69218;52.132;5.418;2023-05-10T03:08:38;101000.75;;;12.75;88.63
79729;BME280;69218;52.132;5.418;2023-05-10T03:14:21;100992.44;;;12.70;88.47
79729;BME280;69218;52.132;5.418;2023-05-10T03:16:56;100998.53;;;12.70;88.93
79729;BME280;69218;52.132;5.418;2023-05-10T03:22:08;101004.31;;;12.64;88.75
79729;BME280;69218;52.132;5.418;2023-05-10T03:24:36;101004.47;;;12.62;88.76
79729;BME280;69218;52.132;5.418;2023-05-10T03:27:05;101002.78;;;12.61;88.14
79729;BME280;69218;52.132;5.418;2023-05-10T03:29:32;101001.94;;;12.61;88.72
79729;BME280;69218;52.132;5.418;2023-05-10T03:32:00;101003.63;;;12.62;88.47
79729;BME280;69218;52.132;5.418;2023-05-10T03:34:26;101012.34;;;12.62;88.92
79729;BME280;69218;52.132;5.418;2023-05-10T03:36:53;101005.44;;;12.61;88.68
79729;BME280;69218;52.132;5.418;2023-05-10T03:39:19;101010.09;;;12.58;88.80
79729;BME280;69218;52.132;5.418;2023-05-10T03:41:47;101008.31;;;12.58;88.63
79729;BME280;69218;52.132;5.418;2023-05-10T03:44:14;100998.59;;;12.59;88.78
79729;BME280;69218;52.132;5.418;2023-05-10T03:46:40;101002.06;;;12.59;88.47
79729;BME280;69218;52.132;5.418;2023-05-10T03:49:07;101003.72;;;12.60;88.46
79729;BME280;69218;52.132;5.418;2023-05-10T03:51:34;101001.81;;;12.62;88.84
79729;BME280;69218;52.132;5.418;2023-05-10T03:54:00;101007.09;;;12.62;89.03
79729;BME280;69218;52.132;5.418;2023-05-10T03:56:27;101009.97;;;12.59;88.57
79729;BME280;69218;52.132;5.418;2023-05-10T03:58:53;101012.72;;;12.58;88.41
79729;BME280;69218;52.132;5.418;2023-05-10T04:01:20;101009.00;;;12.60;88.74
79729;BME280;69218;52.132;5.418;2023-05-10T04:03:46;101006.94;;;12.64;88.58
79729;BME280;69218;52.132;5.418;2023-05-10T04:06:13;101008.88;;;12.62;88.73
79729;BME280;69218;52.132;5.418;2023-05-10T04:08:40;101010.78;;;12.60;88.63
79729;BME280;69218;52.132;5.418;2023-05-10T04:11:08;101012.44;;;12.61;88.24
79729;BME280;69218;52.132;5.418;2023-05-10T04:13:35;101016.78;;;12.62;88.30
79729;BME280;69218;52.132;5.418;2023-05-10T04:16:02;101017.72;;;12.61;89.14
79729;BME280;69218;52.132;5.418;2023-05-10T04:18:28;101023.94;;;12.60;88.93
79729;BME280;69218;52.132;5.418;2023-05-10T04:20:55;101014.38;;;12.59;88.83
79729;BME280;69218;52.132;5.418;2023-05-10T04:23:22;101016.19;;;12.58;89.24
79729;BME280;69218;52.132;5.418;2023-05-10T04:25:48;101018.00;;;12.58;88.95
79729;BME280;69218;52.132;5.418;2023-05-10T04:28:15;101015.06;;;12.61;89.08
79729;BME280;69218;52.132;5.418;2023-05-10T04:30:41;101016.78;;;12.62;88.95
79729;BME280;69218;52.132;5.418;2023-05-10T04:33:08;101018.44;;;12.63;89.41
79729;BME280;69218;52.132;5.418;2023-05-10T04:35:35;101017.47;;;12.64;89.21
79729;BME280;69218;52.132;5.418;2023-05-10T04:38:01;101019.13;;;12.65;89.02
79729;BME280;69218;52.132;5.418;2023-05-10T04:40:28;101018.28;;;12.64;89.41
79729;BME280;69218;52.132;5.418;2023-05-10T04:42:54;101009.56;;;12.64;89.04
79729;BME280;69218;52.132;5.418;2023-05-10T04:45:22;101011.25;;;12.65;89.08
79729;BME280;69218;52.132;5.418;2023-05-10T04:47:49;101013.03;;;12.64;88.90
79729;BME280;69218;52.132;5.418;2023-05-10T04:50:15;101017.59;;;12.62;88.82
79729;BME280;69218;52.132;5.418;2023-05-10T04:52:42;101028.69;;;12.66;88.86
79729;BME280;69218;52.132;5.418;2023-05-10T04:55:09;101031.31;;;12.66;89.11
79729;BME280;69218;52.132;5.418;2023-05-10T04:57:36;101034.22;;;12.63;88.79
79729;BME280;69218;52.132;5.418;2023-05-10T05:00:03;101037.53;;;12.65;89.09
79729;BME280;69218;52.132;5.418;2023-05-10T05:02:30;101034.78;;;12.67;89.11
79729;BME280;69218;52.132;5.418;2023-05-10T05:04:57;101040.03;;;12.67;89.36
79729;BME280;69218;52.132;5.418;2023-05-10T05:07:24;101039.34;;;12.64;88.65
79729;BME280;69218;52.132;5.418;2023-05-10T05:09:50;101039.19;;;12.66;88.59
79729;BME280;69218;52.132;5.418;2023-05-10T05:12:17;101043.25;;;12.70;88.83
79729;BME280;69218;52.132;5.418;2023-05-10T05:14:44;101044.78;;;12.73;89.07
79729;BME280;69218;52.132;5.418;2023-05-10T05:17:10;101044.78;;;12.73;88.69
79729;BME280;69218;52.132;5.418;2023-05-10T05:19:37;101049.91;;;12.74;88.42
79729;BME280;69218;52.132;5.418;2023-05-10T05:22:06;101055.06;;;12.76;89.07
79729;BME280;69218;52.132;5.418;2023-05-10T05:24:35;101049.66;;;12.77;88.91
79729;BME280;69218;52.132;5.418;2023-05-10T05:27:02;101056.56;;;12.78;88.94
79729;BME280;69218;52.132;5.418;2023-05-10T05:29:29;101064.47;;;12.78;88.48
79729;BME280;69218;52.132;5.418;2023-05-10T05:31:56;101061.84;;;12.78;89.33
79729;BME280;69218;52.132;5.418;2023-05-10T05:34:22;101067.22;;;12.77;89.02
79729;BME280;69218;52.132;5.418;2023-05-10T05:36:49;101070.69;;;12.77;89.07
79729;BME280;69218;52.132;5.418;2023-05-10T05:39:15;101067.78;;;12.80;89.37
79729;BME280;69218;52.132;5.418;2023-05-10T05:41:42;101068.63;;;12.81;89.63
79729;BME280;69218;52.132;5.418;2023-05-10T05:44:10;101071.25;;;12.81;89.63
79729;BME280;69218;52.132;5.418;2023-05-10T05:46:36;101073.06;;;12.80;89.54
79729;BME280;69218;52.132;5.418;2023-05-10T05:49:03;101069.97;;;12.75;89.20
79729;BME280;69218;52.132;5.418;2023-05-10T05:51:30;101068.31;;;12.74;89.24
79729;BME280;69218;52.132;5.418;2023-05-10T05:53:57;101077.03;;;12.75;89.29
79729;BME280;69218;52.132;5.418;2023-05-10T05:56:25;101078.97;;;12.73;89.17
79729;BME280;69218;52.132;5.418;2023-05-10T05:58:51;101075.38;;;12.74;89.60
79729;BME280;69218;52.132;5.418;2023-05-10T06:01:18;101088.53;;;12.74;89.32
79729;BME280;69218;52.132;5.418;2023-05-10T06:03:45;101084.94;;;12.75;89.80
79729;BME280;69218;52.132;5.418;2023-05-10T06:06:12;101092.94;;;12.73;89.42
79729;BME280;69218;52.132;5.418;2023-05-10T06:08:38;101092.94;;;12.73;89.40
79729;BME280;69218;52.132;5.418;2023-05-10T06:11:05;101091.75;;;12.77;89.29
79729;BME280;69218;52.132;5.418;2023-05-10T06:13:32;101096.03;;;12.78;89.23
79729;BME280;69218;52.132;5.418;2023-05-10T06:15:59;101099.38;;;12.80;89.30
79729;BME280;69218;52.132;5.418;2023-05-10T06:18:26;101099.03;;;12.74;89.20
79729;BME280;69218;52.132;5.418;2023-05-10T06:20:56;101104.81;;;12.68;88.99
79729;BME280;69218;52.132;5.418;2023-05-10T06:23:23;101109.00;;;12.70;88.93
79729;BME280;69218;52.132;5.418;2023-05-10T06:25:52;101101.69;;;12.74;89.00
79729;BME280;69218;52.132;5.418;2023-05-10T06:28:18;101110.16;;;12.77;88.64
79729;BME280;69218;52.132;5.418;2023-05-10T06:30:45;101104.50;;;12.82;88.74
79729;BME280;69218;52.132;5.418;2023-05-10T06:33:12;101106.75;;;12.86;88.56
79729;BME280;69218;52.132;5.418;2023-05-10T06:35:44;101102.06;;;12.90;88.53
79729;BME280;69218;52.132;5.418;2023-05-10T06:38:12;101107.72;;;12.85;88.25
79729;BME280;69218;52.132;5.418;2023-05-10T06:40:44;101107.00;;;12.83;88.16
79729;BME280;69218;52.132;5.418;2023-05-10T06:43:11;101107.84;;;12.84;87.79
79729;BME280;69218;52.132;5.418;2023-05-10T06:45:41;101113.09;;;12.84;87.63
79729;BME280;69218;52.132;5.418;2023-05-10T06:48:11;101109.22;;;12.88;87.56
79729;BME280;69218;52.132;5.418;2023-05-10T06:50:41;101116.06;;;12.90;87.86
79729;BME280;69218;52.132;5.418;2023-05-10T06:53:11;101117.44;;;12.95;87.72
79729;BME280;69218;52.132;5.418;2023-05-10T06:55:41;101125.19;;;12.96;87.73
79729;BME280;69218;52.132;5.418;2023-05-10T06:58:09;101123.94;;;12.90;86.67
79729;BME280;69218;52.132;5.418;2023-05-10T07:00:36;101127.50;;;12.89;86.88
79729;BME280;69218;52.132;5.418;2023-05-10T07:03:06;101124.38;;;12.96;86.48
79729;BME280;69218;52.132;5.418;2023-05-10T07:05:33;101130.78;;;13.03;86.42
79729;BME280;69218;52.132;5.418;2023-05-10T07:08:00;101126.47;;;13.02;86.45
79729;BME280;69218;52.132;5.418;2023-05-10T07:10:27;101133.53;;;13.01;86.54
79729;BME280;69218;52.132;5.418;2023-05-10T07:12:54;101134.78;;;12.97;85.99
79729;BME280;69218;52.132;5.418;2023-05-10T07:15:21;101135.72;;;12.96;86.53
79729;BME280;69218;52.132;5.418;2023-05-10T07:17:49;101145.41;;;12.96;86.38
79729;BME280;69218;52.132;5.418;2023-05-10T07:20:16;101142.78;;;12.96;86.22
79729;BME280;69218;52.132;5.418;2023-05-10T07:22:42;101139.09;;;12.98;86.37
79729;BME280;69218;52.132;5.418;2023-05-10T07:25:09;101140.75;;;12.99;86.34
79729;BME280;69218;52.132;5.418;2023-05-10T07:27:36;101142.13;;;13.03;86.60
79729;BME280;69218;52.132;5.418;2023-05-10T07:30:03;101148.94;;;13.06;86.47
79729;BME280;69218;52.132;5.418;2023-05-10T07:32:30;101151.31;;;13.09;86.80
79729;BME280;69218;52.132;5.418;2023-05-10T07:35:00;101158.00;;;13.13;85.81
79729;BME280;69218;52.132;5.418;2023-05-10T07:37:27;101156.88;;;13.15;85.94
79729;BME280;69218;52.132;5.418;2023-05-10T07:39:54;101163.56;;;13.19;85.52
79729;BME280;69218;52.132;5.418;2023-05-10T07:42:21;101161.81;;;13.20;85.10
79729;BME280;69218;52.132;5.418;2023-05-10T07:44:48;101170.56;;;13.30;85.31
79729;BME280;69218;52.132;5.418;2023-05-10T07:47:15;101169.66;;;13.41;84.84
79729;BME280;69218;52.132;5.418;2023-05-10T07:49:41;101177.88;;;13.48;85.35
79729;BME280;69218;52.132;5.418;2023-05-10T07:52:08;101176.38;;;13.55;84.93
79729;BME280;69218;52.132;5.418;2023-05-10T07:54:35;101175.00;;;13.60;84.15
79729;BME280;69218;52.132;5.418;2023-05-10T07:57:01;101171.25;;;13.63;84.80
79729;BME280;69218;52.132;5.418;2023-05-10T07:59:28;101180.00;;;13.63;83.70
79729;BME280;69218;52.132;5.418;2023-05-10T08:04:34;101185.94;;;13.56;83.64
79729;BME280;69218;52.132;5.418;2023-05-10T08:07:01;101187.03;;;13.53;83.97
79729;BME280;69218;52.132;5.418;2023-05-10T08:09:28;101193.97;;;13.54;83.87
79729;BME280;69218;52.132;5.418;2023-05-10T08:11:56;101192.72;;;13.58;85.20
79729;BME280;69218;52.132;5.418;2023-05-10T08:14:23;101190.09;;;13.58;84.18
79729;BME280;69218;52.132;5.418;2023-05-10T08:16:50;101194.13;;;13.62;83.64
79729;BME280;69218;52.132;5.418;2023-05-10T08:19:16;101199.25;;;13.64;83.22
79729;BME280;69218;52.132;5.418;2023-05-10T08:21:45;101196.63;;;13.64;83.54
79729;BME280;69218;52.132;5.418;2023-05-10T08:24:12;101195.78;;;13.63;83.95
79729;BME280;69218;52.132;5.418;2023-05-10T08:26:40;101203.84;;;13.62;84.30
79729;BME280;69218;52.132;5.418;2023-05-10T08:29:09;101199.41;;;13.62;84.22
79729;BME280;69218;52.132;5.418;2023-05-10T08:31:36;101205.53;;;13.72;83.69
79729;BME280;69218;52.132;5.418;2023-05-10T08:34:03;101204.03;;;13.80;83.69
79729;BME280;69218;52.132;5.418;2023-05-10T08:36:30;101205.56;;;13.82;83.19
79729;BME280;69218;52.132;5.418;2023-05-10T08:38:56;101210.25;;;13.79;82.26
79729;BME280;69218;52.132;5.418;2023-05-10T08:41:24;101223.84;;;13.74;82.27
79729;BME280;69218;52.132;5.418;2023-05-10T08:43:53;101220.81;;;13.79;83.80
79729;BME280;69218;52.132;5.418;2023-05-10T08:46:22;101223.31;;;13.80;81.99
79729;BME280;69218;52.132;5.418;2023-05-10T08:48:50;101229.72;;;13.87;82.54
79729;BME280;69218;52.132;5.418;2023-05-10T08:51:22;101223.75;;;13.85;82.46
79729;BME280;69218;52.132;5.418;2023-05-10T08:53:52;101230.53;;;13.88;81.66
79729;BME280;69218;52.132;5.418;2023-05-10T08:56:19;101233.91;;;13.90;82.69
79729;BME280;69218;52.132;5.418;2023-05-10T08:58:46;101232.53;;;13.95;82.79
79729;BME280;69218;52.132;5.418;2023-05-10T09:01:14;101236.16;;;14.04;82.20
79729;BME280;69218;52.132;5.418;2023-05-10T09:03:43;101234.66;;;14.21;81.85
79729;BME280;69218;52.132;5.418;2023-05-10T09:06:11;101239.13;;;14.40;80.25
79729;BME280;69218;52.132;5.418;2023-05-10T09:08:41;101230.56;;;14.47;78.89
79729;BME280;69218;52.132;5.418;2023-05-10T09:11:12;101235.44;;;14.62;79.42
79729;BME280;69218;52.132;5.418;2023-05-10T09:13:44;101238.63;;;14.75;79.07
79729;BME280;69218;52.132;5.418;2023-05-10T09:16:47;101232.78;;;14.91;78.90
79729;BME280;69218;52.132;5.418;2023-05-10T09:19:14;101229.69;;;15.05;79.03
79729;BME280;69218;52.132;5.418;2023-05-10T09:21:41;101233.13;;;15.25;77.98
79729;BME280;69218;52.132;5.418;2023-05-10T09:24:08;101232.00;;;15.27;77.73
79729;BME280;69218;52.132;5.418;2023-05-10T09:27:08;101241.53;;;15.48;78.29
79729;BME280;69218;52.132;5.418;2023-05-10T09:29:42;101234.72;;;15.64;76.17
79729;BME280;69218;52.132;5.418;2023-05-10T09:34:49;101233.88;;;15.91;74.00
79729;BME280;69218;52.132;5.418;2023-05-10T09:37:28;101243.75;;;16.17;72.77
79729;BME280;69218;52.132;5.418;2023-05-10T09:39:56;101240.06;;;16.28;74.49
79729;BME280;69218;52.132;5.418;2023-05-10T09:42:36;101244.84;;;16.42;73.27
79729;BME280;69218;52.132;5.418;2023-05-10T09:45:08;101247.63;;;16.40;70.43
79729;BME280;69218;52.132;5.418;2023-05-10T09:50:56;101250.59;;;16.55;72.61
79729;BME280;69218;52.132;5.418;2023-05-10T09:53:23;101260.81;;;16.50;72.26
79729;BME280;69218;52.132;5.418;2023-05-10T09:55:50;101259.66;;;16.35;70.17
79729;BME280;69218;52.132;5.418;2023-05-10T09:58:17;101264.50;;;16.22;72.16
79729;BME280;69218;52.132;5.418;2023-05-10T10:00:47;101267.16;;;16.12;71.81
79729;BME280;69218;52.132;5.418;2023-05-10T10:03:19;101271.13;;;15.98;72.30
79729;BME280;69218;52.132;5.418;2023-05-10T10:05:47;101267.50;;;15.99;74.43
79729;BME280;69218;52.132;5.418;2023-05-10T10:08:15;101267.75;;;16.06;74.49
79729;BME280;69218;52.132;5.418;2023-05-10T10:10:42;101273.19;;;16.04;73.07
79729;BME280;69218;52.132;5.418;2023-05-10T10:13:12;101273.34;;;16.03;73.77
79729;BME280;69218;52.132;5.418;2023-05-10T10:15:40;101266.66;;;16.08;72.66
79729;BME280;69218;52.132;5.418;2023-05-10T10:18:13;101274.25;;;16.21;73.56
79729;BME280;69218;52.132;5.418;2023-05-10T10:20:40;101280.81;;;16.35;72.28
79729;BME280;69218;52.132;5.418;2023-05-10T10:23:08;101286.31;;;16.51;72.10
79729;BME280;69218;52.132;5.418;2023-05-10T10:25:35;101279.44;;;16.58;71.83
79729;BME280;69218;52.132;5.418;2023-05-10T10:31:28;101280.03;;;16.52;71.17
79729;BME280;69218;52.132;5.418;2023-05-10T10:34:26;101283.50;;;16.53;71.69
79729;BME280;69218;52.132;5.418;2023-05-10T10:36:55;101284.09;;;16.46;71.95
79729;BME280;69218;52.132;5.418;2023-05-10T10:39:24;101286.59;;;16.48;72.09
79729;BME280;69218;52.132;5.418;2023-05-10T10:41:56;101291.75;;;16.50;73.09
79729;BME280;69218;52.132;5.418;2023-05-10T10:44:23;101283.09;;;16.47;72.03
79729;BME280;69218;52.132;5.418;2023-05-10T10:50:05;101286.22;;;16.61;72.61
79729;BME280;69218;52.132;5.418;2023-05-10T10:52:37;101285.09;;;16.63;72.35
79729;BME280;69218;52.132;5.418;2023-05-10T10:55:18;101287.03;;;16.71;71.39
79729;BME280;69218;52.132;5.418;2023-05-10T10:57:51;101288.59;;;16.82;71.92
79729;BME280;69218;52.132;5.418;2023-05-10T11:02:57;101291.88;;;16.93;70.67
79729;BME280;69218;52.132;5.418;2023-05-10T11:07:57;101289.38;;;16.92;70.60
79729;BME280;69218;52.132;5.418;2023-05-10T11:10:25;101290.72;;;16.96;69.61
79729;BME280;69218;52.132;5.418;2023-05-10T11:15:35;101297.38;;;16.82;69.81
79729;BME280;69218;52.132;5.418;2023-05-10T11:18:20;101297.75;;;16.69;69.72
79729;BME280;69218;52.132;5.418;2023-05-10T11:21:05;101291.50;;;16.61;70.78
79729;BME280;69218;52.132;5.418;2023-05-10T11:26:07;101299.97;;;16.46;71.01
79729;BME280;69218;52.132;5.418;2023-05-10T11:28:44;101294.09;;;16.53;71.54
79729;BME280;69218;52.132;5.418;2023-05-10T11:31:16;101295.09;;;16.69;70.12
79729;BME280;69218;52.132;5.418;2023-05-10T11:33:56;101296.63;;;16.90;69.96
79729;BME280;69218;52.132;5.418;2023-05-10T11:36:25;101293.81;;;17.09;69.26
79729;BME280;69218;52.132;5.418;2023-05-10T11:38:53;101302.91;;;17.33;69.81
79729;BME280;69218;52.132;5.418;2023-05-10T11:41:22;101299.81;;;17.63;68.08
79729;BME280;69218;52.132;5.418;2023-05-10T11:43:50;101298.34;;;17.95;66.25
79729;BME280;69218;52.132;5.418;2023-05-10T11:46:23;101295.88;;;18.01;65.04
79729;BME280;69218;52.132;5.418;2023-05-10T11:48:52;101289.75;;;18.01;64.99
79729;BME280;69218;52.132;5.418;2023-05-10T11:51:23;101293.41;;;18.00;64.75
79729;BME280;69218;52.132;5.418;2023-05-10T11:53:52;101291.72;;;17.91;65.70
79729;BME280;69218;52.132;5.418;2023-05-10T11:56:19;101296.84;;;17.92;65.77
79729;BME280;69218;52.132;5.418;2023-05-10T11:58:55;101303.22;;;17.73;66.57
79729;BME280;69218;52.132;5.418;2023-05-10T12:01:23;101298.56;;;17.49;67.28
79729;BME280;69218;52.132;5.418;2023-05-10T12:03:50;101312.59;;;17.42;66.21
79729;BME280;69218;52.132;5.418;2023-05-10T12:06:18;101312.03;;;17.30;69.04
79729;BME280;69218;52.132;5.418;2023-05-10T12:08:47;101312.47;;;17.25;68.13
79729;BME280;69218;52.132;5.418;2023-05-10T12:11:14;101314.34;;;17.33;69.00
79729;BME280;69218;52.132;5.418;2023-05-10T12:13:44;101315.19;;;17.34;67.20
79729;BME280;69218;52.132;5.418;2023-05-10T12:16:19;101314.22;;;17.35;68.53
79729;BME280;69218;52.132;5.418;2023-05-10T12:18:50;101315.75;;;17.45;64.96
79729;BME280;69218;52.132;5.418;2023-05-10T12:21:20;101311.84;;;17.49;65.50
79729;BME280;69218;52.132;5.418;2023-05-10T12:23:50;101306.63;;;17.66;67.91
79729;BME280;69218;52.132;5.418;2023-05-10T12:26:17;101310.88;;;17.76;66.78
79729;BME280;69218;52.132;5.418;2023-05-10T12:28:43;101308.66;;;17.98;66.21
79729;BME280;69218;52.132;5.418;2023-05-10T12:31:10;101310.34;;;18.07;66.15
79729;BME280;69218;52.132;5.418;2023-05-10T12:33:38;101304.44;;;18.21;65.69
79729;BME280;69218;52.132;5.418;2023-05-10T12:36:05;101297.84;;;18.42;65.84
79729;BME280;69218;52.132;5.418;2023-05-10T12:38:37;101299.94;;;18.72;65.35
79729;BME280;69218;52.132;5.418;2023-05-10T12:41:09;101302.09;;;19.01;62.59
79729;BME280;69218;52.132;5.418;2023-05-10T12:43:36;101306.44;;;19.02;59.67
79729;BME280;69218;52.132;5.418;2023-05-10T12:46:07;101303.13;;;18.84;61.13
79729;BME280;69218;52.132;5.418;2023-05-10T12:48:35;101302.59;;;18.88;62.50
79729;BME280;69218;52.132;5.418;2023-05-10T12:51:04;101306.44;;;18.94;61.95
79729;BME280;69218;52.132;5.418;2023-05-10T12:53:31;101315.91;;;18.97;62.02
79729;BME280;69218;52.132;5.418;2023-05-10T12:55:57;101304.59;;;18.86;61.16
79729;BME280;69218;52.132;5.418;2023-05-10T12:58:24;101310.56;;;18.72;63.02
79729;BME280;69218;52.132;5.418;2023-05-10T13:01:01;101310.44;;;18.82;63.55
79729;BME280;69218;52.132;5.418;2023-05-10T13:03:28;101317.41;;;18.83;63.58
79729;BME280;69218;52.132;5.418;2023-05-10T13:05:54;101319.31;;;18.64;63.71
79729;BME280;69218;52.132;5.418;2023-05-10T13:08:21;101325.31;;;18.66;63.07
79729;BME280;69218;52.132;5.418;2023-05-10T13:10:47;101326.63;;;18.62;62.43
79729;BME280;69218;52.132;5.418;2023-05-10T13:13:14;101329.38;;;18.45;62.49
79729;BME280;69218;52.132;5.418;2023-05-10T13:15:41;101326.22;;;18.33;64.24
79729;BME280;69218;52.132;5.418;2023-05-10T13:18:07;101337.63;;;18.25;66.80
79729;BME280;69218;52.132;5.418;2023-05-10T13:20:34;101337.72;;;18.07;67.36
79729;BME280;69218;52.132;5.418;2023-05-10T13:23:01;101337.69;;;17.73;68.07
79729;BME280;69218;52.132;5.418;2023-05-10T13:25:28;101341.78;;;17.42;70.00
79729;BME280;69218;52.132;5.418;2023-05-10T13:27:55;101347.25;;;17.22;70.17
79729;BME280;69218;52.132;5.418;2023-05-10T13:30:21;101343.31;;;17.09;71.09
79729;BME280;69218;52.132;5.418;2023-05-10T13:32:49;101354.66;;;17.01;72.94
79729;BME280;69218;52.132;5.418;2023-05-10T13:35:16;101356.84;;;16.88;72.58